sensor_id;sensor_type;location;lat;lon;timestamp;pressure;altitude;pressure_sealevel;temperature;humidity
32642;BME280;19323;56.072;9.698;2023-02-26T00:01:37;101198.94;;;25.05;38.05
32642;BME280;19323;56.072;9.698;2023-02-26T00:04:03;101200.78;;;25.05;38.31
32642;BME280;19323;56.072;9.698;2023-02-26T00:06:30;101202.75;;;25.03;38.40
32642;BME280;19323;56.072;9.698;2023-02-26T00:08:56;101206.44;;;25.02;38.11
32642;BME280;19323;56.072;9.698;2023-02-26T00:11:21;101211.81;;;25.02;38.23
32642;BME280;19323;56.072;9.698;2023-02-26T00:13:47;101215.47;;;25.01;38.33
32642;BME280;19323;56.072;9.698;2023-02-26T00:16:14;101224.50;;;25.00;38.42
32642;BME280;19323;56.072;9.698;2023-02-26T00:18:41;101224.50;;;25.00;38.43
32642;BME280;19323;56.072;9.698;2023-02-26T00:21:06;101223.81;;;24.98;38.53
32642;BME280;19323;56.072;9.698;2023-02-26T00:23:33;101227.31;;;24.98;38.28
32642;BME280;19323;56.072;9.698;2023-02-26T00:25:58;101228.16;;;24.99;38.37
32642;BME280;19323;56.072;9.698;2023-02-26T00:28:23;101232.81;;;24.97;38.51
32642;BME280;19323;56.072;9.698;2023-02-26T00:30:49;101233.81;;;24.96;38.39
32642;BME280;19323;56.072;9.698;2023-02-26T00:33:14;101237.47;;;24.95;38.05
32642;BME280;19323;56.072;9.698;2023-02-26T00:35:39;101236.63;;;24.94;38.43
32642;BME280;19323;56.072;9.698;2023-02-26T00:38:05;101243.84;;;24.94;38.21
32642;BME280;19323;56.072;9.698;2023-02-26T00:40:38;101247.50;;;24.93;38.45
32642;BME280;19323;56.072;9.698;2023-02-26T00:43:05;101253.72;;;24.93;38.29
32642;BME280;19323;56.072;9.698;2023-02-26T00:45:31;101250.34;;;24.91;38.38
32642;BME280;19323;56.072;9.698;2023-02-26T00:48:06;101255.81;;;24.90;38.32
32642;BME280;19323;56.072;9.698;2023-02-26T00:50:36;101263.03;;;24.89;38.38
32642;BME280;19323;56.072;9.698;2023-02-26T00:53:08;101263.84;;;24.90;38.42
32642;BME280;19323;56.072;9.698;2023-02-26T00:55:36;101261.31;;;24.88;38.47
32642;BME280;19323;56.072;9.698;2023-02-26T00:58:02;101260.47;;;24.87;38.49
32642;BME280;19323;56.072;9.698;2023-02-26T01:00:27;101272.03;;;24.88;38.31
32642;BME280;19323;56.072;9.698;2023-02-26T01:02:52;101266.84;;;24.86;38.35
32642;BME280;19323;56.072;9.698;2023-02-26T01:05:18;101274.88;;;24.86;38.41
32642;BME280;19323;56.072;9.698;2023-02-26T01:10:09;101273.16;;;24.85;38.50
32642;BME280;19323;56.072;9.698;2023-02-26T01:12:35;101275.84;;;24.85;38.54
32642;BME280;19323;56.072;9.698;2023-02-26T01:15:00;101279.53;;;24.84;38.44
32642;BME280;19323;56.072;9.698;2023-02-26T01:17:27;101281.38;;;24.84;38.39
32642;BME280;19323;56.072;9.698;2023-02-26T01:20:37;101281.38;;;24.84;38.43
32642;BME280;19323;56.072;9.698;2023-02-26T01:22:45;101278.81;;;24.82;38.59
32642;BME280;19323;56.072;9.698;2023-02-26T01:25:14;101290.25;;;24.84;38.52
32642;BME280;19323;56.072;9.698;2023-02-26T01:27:40;101289.41;;;24.84;38.57
32642;BME280;19323;56.072;9.698;2023-02-26T01:30:05;101284.06;;;24.84;38.41
32642;BME280;19323;56.072;9.698;2023-02-26T01:32:41;101284.06;;;24.84;38.37
32642;BME280;19323;56.072;9.698;2023-02-26T01:40:22;101287.00;;;24.81;38.38
32642;BME280;19323;56.072;9.698;2023-02-26T01:42:53;101294.91;;;24.82;38.47
32642;BME280;19323;56.072;9.698;2023-02-26T01:45:25;101294.06;;;24.82;38.46
32642;BME280;19323;56.072;9.698;2023-02-26T01:47:56;101296.03;;;24.80;38.57
32642;BME280;19323;56.072;9.698;2023-02-26T01:50:23;101296.03;;;24.80;38.38
32642;BME280;19323;56.072;9.698;2023-02-26T01:53:41;101294.19;;;24.80;38.46
32642;BME280;19323;56.072;9.698;2023-02-26T01:55:41;101292.47;;;24.79;38.36
32642;BME280;19323;56.072;9.698;2023-02-26T01:58:08;101283.63;;;24.69;38.69
32642;BME280;19323;56.072;9.698;2023-02-26T02:00:33;101304.91;;;24.80;38.37
32642;BME280;19323;56.072;9.698;2023-02-26T02:02:58;101303.91;;;24.81;38.53
32642;BME280;19323;56.072;9.698;2023-02-26T02:05:26;101304.91;;;24.80;38.42
32642;BME280;19323;56.072;9.698;2023-02-26T02:07:52;101313.78;;;24.81;38.53
32642;BME280;19323;56.072;9.698;2023-02-26T02:10:17;101311.94;;;24.81;38.61
32642;BME280;19323;56.072;9.698;2023-02-26T02:18:11;101318.16;;;24.82;38.40
32642;BME280;19323;56.072;9.698;2023-02-26T02:25:51;101326.22;;;24.82;38.51
32642;BME280;19323;56.072;9.698;2023-02-26T02:31:10;101337.75;;;24.82;38.38
32642;BME280;19323;56.072;9.698;2023-02-26T02:33:44;101337.75;;;24.82;38.54
32642;BME280;19323;56.072;9.698;2023-02-26T02:36:12;101343.00;;;24.84;38.53
32642;BME280;19323;56.072;9.698;2023-02-26T02:38:43;101345.66;;;24.84;38.36
32642;BME280;19323;56.072;9.698;2023-02-26T02:41:44;101346.78;;;24.81;38.23
32642;BME280;19323;56.072;9.698;2023-02-26T02:44:01;101353.72;;;24.84;38.39
32642;BME280;19323;56.072;9.698;2023-02-26T02:46:29;101352.84;;;24.83;38.29
32642;BME280;19323;56.072;9.698;2023-02-26T02:49:00;101361.88;;;24.82;38.19
32642;BME280;19323;56.072;9.698;2023-02-26T02:51:36;101359.19;;;24.82;38.18
32642;BME280;19323;56.072;9.698;2023-02-26T02:56:37;101371.59;;;24.83;38.45
32642;BME280;19323;56.072;9.698;2023-02-26T03:01:38;101375.81;;;24.86;38.28
32642;BME280;19323;56.072;9.698;2023-02-26T03:04:08;101376.81;;;24.85;38.27
32642;BME280;19323;56.072;9.698;2023-02-26T03:06:34;101380.34;;;24.85;38.35
32642;BME280;19323;56.072;9.698;2023-02-26T03:08:59;101387.41;;;24.86;38.40
32642;BME280;19323;56.072;9.698;2023-02-26T03:11:25;101388.38;;;24.85;38.38
32642;BME280;19323;56.072;9.698;2023-02-26T03:13:50;101385.69;;;24.85;38.10
32642;BME280;19323;56.072;9.698;2023-02-26T03:16:20;101345.78;;;24.63;38.12
32642;BME280;19323;56.072;9.698;2023-02-26T03:26:30;101398.84;;;24.88;38.33
32642;BME280;19323;56.072;9.698;2023-02-26T03:29:05;101397.84;;;24.90;38.30
32642;BME280;19323;56.072;9.698;2023-02-26T03:31:34;101404.03;;;24.90;38.12
32642;BME280;19323;56.072;9.698;2023-02-26T03:34:08;101419.28;;;24.90;38.24
32642;BME280;19323;56.072;9.698;2023-02-26T03:39:10;101406.88;;;24.88;38.17
32642;BME280;19323;56.072;9.698;2023-02-26T03:41:42;101404.19;;;24.88;37.90
32642;BME280;19323;56.072;9.698;2023-02-26T03:44:10;101408.84;;;24.86;38.23
32642;BME280;19323;56.072;9.698;2023-02-26T03:46:45;101417.84;;;24.85;38.28
32642;BME280;19323;56.072;9.698;2023-02-26T03:49:18;101425.06;;;24.85;38.24
32642;BME280;19323;56.072;9.698;2023-02-26T03:51:44;101421.53;;;24.84;37.95
32642;BME280;19323;56.072;9.698;2023-02-26T03:54:15;101421.66;;;24.83;38.23
32642;BME280;19323;56.072;9.698;2023-02-26T03:56:44;101428.03;;;24.82;38.26
32642;BME280;19323;56.072;9.698;2023-02-26T03:59:11;101435.19;;;24.81;38.14
32642;BME280;19323;56.072;9.698;2023-02-26T04:01:45;101435.34;;;24.80;38.17
32642;BME280;19323;56.072;9.698;2023-02-26T04:04:13;101438.03;;;24.80;38.12
32642;BME280;19323;56.072;9.698;2023-02-26T04:06:40;101438.16;;;24.78;38.00
32642;BME280;19323;56.072;9.698;2023-02-26T04:09:05;101440.97;;;24.77;38.06
32642;BME280;19323;56.072;9.698;2023-02-26T04:11:31;101446.31;;;24.77;37.96
32642;BME280;19323;56.072;9.698;2023-02-26T04:13:56;101456.19;;;24.76;38.07
32642;BME280;19323;56.072;9.698;2023-02-26T04:16:21;101455.19;;;24.77;38.15
32642;BME280;19323;56.072;9.698;2023-02-26T04:18:47;101455.06;;;24.79;38.11
32642;BME280;19323;56.072;9.698;2023-02-26T04:21:13;101453.22;;;24.79;38.30
32642;BME280;19323;56.072;9.698;2023-02-26T04:23:39;101462.13;;;24.80;38.30
32642;BME280;19323;56.072;9.698;2023-02-26T04:26:05;101465.66;;;24.80;38.20
32642;BME280;19323;56.072;9.698;2023-02-26T04:28:30;101468.22;;;24.82;38.14
32642;BME280;19323;56.072;9.698;2023-02-26T04:30:55;101474.53;;;24.81;38.14
32642;BME280;19323;56.072;9.698;2023-02-26T04:33:20;101485.25;;;24.81;38.10
32642;BME280;19323;56.072;9.698;2023-02-26T04:35:47;101486.09;;;24.81;37.91
32642;BME280;19323;56.072;9.698;2023-02-26T04:38:12;101484.41;;;24.80;38.06
32642;BME280;19323;56.072;9.698;2023-02-26T04:40:37;101486.97;;;24.82;38.10
32642;BME280;19323;56.072;9.698;2023-02-26T04:43:02;101490.50;;;24.82;38.01
32642;BME280;19323;56.072;9.698;2023-02-26T04:45:27;101491.31;;;24.83;38.12
32642;BME280;19323;56.072;9.698;2023-02-26T04:47:52;101494.72;;;24.85;38.06
32642;BME280;19323;56.072;9.698;2023-02-26T04:50:18;101489.38;;;24.85;37.91
32642;BME280;19323;56.072;9.698;2023-02-26T04:52:43;101492.88;;;24.85;38.08
32642;BME280;19323;56.072;9.698;2023-02-26T04:55:08;101492.75;;;24.87;37.88
32642;BME280;19323;56.072;9.698;2023-02-26T04:57:33;101497.28;;;24.86;37.93
32642;BME280;19323;56.072;9.698;2023-02-26T04:59:58;101498.94;;;24.87;37.79
32642;BME280;19323;56.072;9.698;2023-02-26T05:02:24;101498.00;;;24.88;37.93
32642;BME280;19323;56.072;9.698;2023-02-26T05:04:49;101507.00;;;24.87;37.96
32642;BME280;19323;56.072;9.698;2023-02-26T05:07:14;101502.63;;;24.86;38.12
32642;BME280;19323;56.072;9.698;2023-02-26T05:09:39;101498.94;;;24.87;37.87
32642;BME280;19323;56.072;9.698;2023-02-26T05:12:04;101506.03;;;24.88;37.87
32642;BME280;19323;56.072;9.698;2023-02-26T05:14:29;101515.75;;;24.90;37.86
32642;BME280;19323;56.072;9.698;2023-02-26T05:16:55;101517.59;;;24.89;37.67
32642;BME280;19323;56.072;9.698;2023-02-26T05:19:20;101517.59;;;24.89;37.75
32642;BME280;19323;56.072;9.698;2023-02-26T05:21:45;101515.03;;;24.87;37.59
32642;BME280;19323;56.072;9.698;2023-02-26T05:24:10;101520.38;;;24.87;37.55
32642;BME280;19323;56.072;9.698;2023-02-26T05:26:35;101529.44;;;24.86;37.54
32642;BME280;19323;56.072;9.698;2023-02-26T05:29:00;101528.44;;;24.87;37.70
32642;BME280;19323;56.072;9.698;2023-02-26T05:31:26;101531.22;;;24.86;37.78
32642;BME280;19323;56.072;9.698;2023-02-26T05:33:52;101530.56;;;24.84;37.49
32642;BME280;19323;56.072;9.698;2023-02-26T05:36:17;101531.38;;;24.84;37.60
32642;BME280;19323;56.072;9.698;2023-02-26T05:38:42;101533.22;;;24.84;37.81
32642;BME280;19323;56.072;9.698;2023-02-26T05:41:07;101535.75;;;24.85;37.83
32642;BME280;19323;56.072;9.698;2023-02-26T05:43:32;101535.75;;;24.85;37.82
32642;BME280;19323;56.072;9.698;2023-02-26T05:45:58;101535.03;;;24.83;37.72
32642;BME280;19323;56.072;9.698;2023-02-26T05:48:23;101543.06;;;24.83;37.83
32642;BME280;19323;56.072;9.698;2023-02-26T05:50:48;101536.88;;;24.83;37.69
32642;BME280;19323;56.072;9.698;2023-02-26T05:53:13;101541.41;;;24.82;37.71
32642;BME280;19323;56.072;9.698;2023-02-26T05:55:39;101536.88;;;24.83;37.64
32642;BME280;19323;56.072;9.698;2023-02-26T05:58:04;101541.41;;;24.82;37.60
32642;BME280;19323;56.072;9.698;2023-02-26T06:00:29;101544.78;;;24.84;37.70
32642;BME280;19323;56.072;9.698;2023-02-26T06:02:54;101550.16;;;24.84;37.63
32642;BME280;19323;56.072;9.698;2023-02-26T06:05:20;101551.00;;;24.85;37.78
32642;BME280;19323;56.072;9.698;2023-02-26T06:07:45;101554.38;;;24.87;37.57
32642;BME280;19323;56.072;9.698;2023-02-26T06:10:10;101560.59;;;24.87;37.79
32642;BME280;19323;56.072;9.698;2023-02-26T06:12:36;101547.00;;;24.79;37.65
32642;BME280;19323;56.072;9.698;2023-02-26T06:15:01;101554.38;;;24.87;37.60
32642;BME280;19323;56.072;9.698;2023-02-26T06:17:26;101563.38;;;24.86;37.69
32642;BME280;19323;56.072;9.698;2023-02-26T06:19:51;101565.94;;;24.87;37.83
32642;BME280;19323;56.072;9.698;2023-02-26T06:22:16;101560.72;;;24.86;37.66
32642;BME280;19323;56.072;9.698;2023-02-26T06:24:42;101573.13;;;24.87;37.55
32642;BME280;19323;56.072;9.698;2023-02-26T06:27:07;101576.78;;;24.86;37.60
32642;BME280;19323;56.072;9.698;2023-02-26T06:29:32;101579.34;;;24.87;37.74
32642;BME280;19323;56.072;9.698;2023-02-26T06:31:58;101584.81;;;24.86;37.53
32642;BME280;19323;56.072;9.698;2023-02-26T06:34:23;101584.81;;;24.86;37.80
32642;BME280;19323;56.072;9.698;2023-02-26T06:36:48;101584.81;;;24.86;37.68
32642;BME280;19323;56.072;9.698;2023-02-26T06:39:13;101592.88;;;24.86;37.61
32642;BME280;19323;56.072;9.698;2023-02-26T06:41:39;101591.19;;;24.85;37.53
32642;BME280;19323;56.072;9.698;2023-02-26T06:44:04;101598.22;;;24.86;37.67
32642;BME280;19323;56.072;9.698;2023-02-26T06:46:29;101601.78;;;24.86;37.74
32642;BME280;19323;56.072;9.698;2023-02-26T06:48:54;101611.50;;;24.87;37.65
32642;BME280;19323;56.072;9.698;2023-02-26T06:51:20;101610.53;;;24.88;37.68
32642;BME280;19323;56.072;9.698;2023-02-26T06:53:45;101611.38;;;24.89;37.61
32642;BME280;19323;56.072;9.698;2023-02-26T06:56:10;101621.09;;;24.90;37.59
32642;BME280;19323;56.072;9.698;2023-02-26T06:58:35;101615.72;;;24.90;37.56
32642;BME280;19323;56.072;9.698;2023-02-26T07:01:02;101627.31;;;24.91;37.60
32642;BME280;19323;56.072;9.698;2023-02-26T07:03:27;101633.53;;;24.91;37.51
32642;BME280;19323;56.072;9.698;2023-02-26T07:05:52;101639.72;;;24.92;37.60
32642;BME280;19323;56.072;9.698;2023-02-26T07:08:18;101632.69;;;24.91;37.61
32642;BME280;19323;56.072;9.698;2023-02-26T07:10:43;101635.38;;;24.91;37.55
32642;BME280;19323;56.072;9.698;2023-02-26T07:13:11;101637.06;;;24.92;37.39
32642;BME280;19323;56.072;9.698;2023-02-26T07:15:37;101636.34;;;24.90;37.40
32642;BME280;19323;56.072;9.698;2023-02-26T07:18:02;101642.69;;;24.88;37.61
32642;BME280;19323;56.072;9.698;2023-02-26T07:20:27;101651.69;;;24.87;37.50
32642;BME280;19323;56.072;9.698;2023-02-26T07:22:53;101654.50;;;24.86;37.74
32642;BME280;19323;56.072;9.698;2023-02-26T07:25:18;101650.00;;;24.86;37.70
32642;BME280;19323;56.072;9.698;2023-02-26T07:27:44;101652.81;;;24.85;37.78
32642;BME280;19323;56.072;9.698;2023-02-26T07:30:09;101667.91;;;24.86;37.71
32642;BME280;19323;56.072;9.698;2023-02-26T07:32:34;101661.69;;;24.85;37.88
32642;BME280;19323;56.072;9.698;2023-02-26T07:34:59;101666.94;;;24.87;37.87
32642;BME280;19323;56.072;9.698;2023-02-26T07:37:25;101660.72;;;24.86;37.87
32642;BME280;19323;56.072;9.698;2023-02-26T07:39:50;101668.88;;;24.85;38.10
32642;BME280;19323;56.072;9.698;2023-02-26T07:42:15;101675.09;;;24.85;38.00
32642;BME280;19323;56.072;9.698;2023-02-26T07:44:41;101674.25;;;24.85;38.18
32642;BME280;19323;56.072;9.698;2023-02-26T07:47:06;101675.09;;;24.85;38.25
32642;BME280;19323;56.072;9.698;2023-02-26T07:49:31;101679.50;;;24.86;38.29
32642;BME280;19323;56.072;9.698;2023-02-26T07:51:58;101674.25;;;24.85;38.19
32642;BME280;19323;56.072;9.698;2023-02-26T07:54:23;101683.13;;;24.85;38.16
32642;BME280;19323;56.072;9.698;2023-02-26T07:56:48;101653.81;;;24.63;38.48
32642;BME280;19323;56.072;9.698;2023-02-26T07:59:13;101688.66;;;24.84;38.28
32642;BME280;19323;56.072;9.698;2023-02-26T08:01:38;101693.84;;;24.85;38.35
32642;BME280;19323;56.072;9.698;2023-02-26T08:04:04;101697.53;;;24.84;38.55
32642;BME280;19323;56.072;9.698;2023-02-26T08:06:29;101692.16;;;24.84;38.35
32642;BME280;19323;56.072;9.698;2023-02-26T08:08:54;101699.38;;;24.84;38.54
32642;BME280;19323;56.072;9.698;2023-02-26T08:11:19;101706.53;;;24.83;38.45
32642;BME280;19323;56.072;9.698;2023-02-26T08:13:44;101706.69;;;24.82;38.34
32642;BME280;19323;56.072;9.698;2023-02-26T08:16:09;101709.38;;;24.82;38.87
32642;BME280;19323;56.072;9.698;2023-02-26T08:18:35;101712.88;;;24.82;38.71
32642;BME280;19323;56.072;9.698;2023-02-26T08:21:00;101711.16;;;24.81;38.78
32642;BME280;19323;56.072;9.698;2023-02-26T08:23:28;101719.09;;;24.83;38.69
32642;BME280;19323;56.072;9.698;2023-02-26T08:26:04;101718.13;;;24.84;38.37
32642;BME280;19323;56.072;9.698;2023-02-26T08:28:29;101723.31;;;24.85;38.42
32642;BME280;19323;56.072;9.698;2023-02-26T08:30:54;101716.00;;;24.87;38.32
32642;BME280;19323;56.072;9.698;2023-02-26T08:33:20;101725.03;;;24.86;38.17
32642;BME280;19323;56.072;9.698;2023-02-26T08:35:45;101721.50;;;24.86;38.20
32642;BME280;19323;56.072;9.698;2023-02-26T08:38:11;101723.31;;;24.85;38.05
32642;BME280;19323;56.072;9.698;2023-02-26T08:40:36;101731.38;;;24.85;38.17
32642;BME280;19323;56.072;9.698;2023-02-26T08:43:01;101737.72;;;24.84;37.81
32642;BME280;19323;56.072;9.698;2023-02-26T08:45:27;101728.84;;;24.84;37.87
32642;BME280;19323;56.072;9.698;2023-02-26T08:47:53;101732.59;;;24.81;37.91
32642;BME280;19323;56.072;9.698;2023-02-26T08:50:19;101745.03;;;24.82;37.80
32642;BME280;19323;56.072;9.698;2023-02-26T08:52:44;101752.22;;;24.82;37.70
32642;BME280;19323;56.072;9.698;2023-02-26T08:55:09;101729.03;;;24.71;37.65
32642;BME280;19323;56.072;9.698;2023-02-26T08:57:35;101753.78;;;24.84;37.78
32642;BME280;19323;56.072;9.698;2023-02-26T09:00:00;101750.13;;;24.85;37.86
32642;BME280;19323;56.072;9.698;2023-02-26T09:02:25;101756.31;;;24.86;37.79
32642;BME280;19323;56.072;9.698;2023-02-26T09:04:50;101757.03;;;24.88;37.67
32642;BME280;19323;56.072;9.698;2023-02-26T09:07:15;101764.13;;;24.89;37.61
32642;BME280;19323;56.072;9.698;2023-02-26T09:09:41;101756.94;;;24.90;37.66
32642;BME280;19323;56.072;9.698;2023-02-26T09:12:06;101768.38;;;24.92;37.76
32642;BME280;19323;56.072;9.698;2023-02-26T09:14:31;101766.53;;;24.92;37.46
32642;BME280;19323;56.072;9.698;2023-02-26T09:16:56;101767.41;;;24.93;37.66
32642;BME280;19323;56.072;9.698;2023-02-26T09:19:23;101777.97;;;24.94;37.42
32642;BME280;19323;56.072;9.698;2023-02-26T09:21:48;101780.53;;;24.96;37.54
32642;BME280;19323;56.072;9.698;2023-02-26T09:24:13;101777.84;;;24.96;37.40
32642;BME280;19323;56.072;9.698;2023-02-26T09:26:39;101784.06;;;24.96;37.47
32642;BME280;19323;56.072;9.698;2023-02-26T09:29:04;101796.34;;;24.99;37.29
32642;BME280;19323;56.072;9.698;2023-02-26T09:31:29;101791.84;;;24.99;37.43
32642;BME280;19323;56.072;9.698;2023-02-26T09:33:54;101806.09;;;25.00;37.19
32642;BME280;19323;56.072;9.698;2023-02-26T09:36:19;101805.25;;;24.99;37.44
32642;BME280;19323;56.072;9.698;2023-02-26T09:38:45;101806.09;;;25.00;37.21
32642;BME280;19323;56.072;9.698;2023-02-26T09:41:15;101803.41;;;25.00;37.17
32642;BME280;19323;56.072;9.698;2023-02-26T09:46:30;101790.81;;;24.91;36.91
32642;BME280;19323;56.072;9.698;2023-02-26T09:49:32;101813.88;;;25.03;37.12
32642;BME280;19323;56.072;9.698;2023-02-26T09:51:50;101820.94;;;25.04;37.15
32642;BME280;19323;56.072;9.698;2023-02-26T09:54:27;101815.59;;;25.04;37.35
32642;BME280;19323;56.072;9.698;2023-02-26T09:56:55;101822.63;;;25.05;37.33
32642;BME280;19323;56.072;9.698;2023-02-26T09:59:21;101823.34;;;25.07;37.25
32642;BME280;19323;56.072;9.698;2023-02-26T10:01:58;101833.22;;;25.06;37.29
32642;BME280;19323;56.072;9.698;2023-02-26T10:12:18;101839.16;;;25.10;37.33
32642;BME280;19323;56.072;9.698;2023-02-26T10:17:29;101845.13;;;25.14;37.33
32642;BME280;19323;56.072;9.698;2023-02-26T10:19:59;101842.31;;;25.15;37.32
32642;BME280;19323;56.072;9.698;2023-02-26T10:22:39;101847.81;;;25.14;37.25
32642;BME280;19323;56.072;9.698;2023-02-26T10:25:09;101846.56;;;25.18;37.18
32642;BME280;19323;56.072;9.698;2023-02-26T10:30:24;101846.09;;;25.24;37.08
32642;BME280;19323;56.072;9.698;2023-02-26T10:32:57;101852.00;;;25.27;37.04
32642;BME280;19323;56.072;9.698;2023-02-26T10:35:25;101853.72;;;25.28;36.86
32642;BME280;19323;56.072;9.698;2023-02-26T10:40:31;101851.66;;;25.32;37.07
32642;BME280;19323;56.072;9.698;2023-02-26T10:42:59;101859.41;;;25.35;36.90
32642;BME280;19323;56.072;9.698;2023-02-26T10:45:39;101851.09;;;25.38;36.95
32642;BME280;19323;56.072;9.698;2023-02-26T10:50:32;101849.00;;;25.42;36.61
32642;BME280;19323;56.072;9.698;2023-02-26T10:52:59;101856.06;;;25.43;36.64
32642;BME280;19323;56.072;9.698;2023-02-26T10:55:36;101859.47;;;25.45;36.58
32642;BME280;19323;56.072;9.698;2023-02-26T11:00:38;101861.91;;;25.48;36.65
32642;BME280;19323;56.072;9.698;2023-02-26T11:03:04;101862.63;;;25.50;36.55
32642;BME280;19323;56.072;9.698;2023-02-26T11:05:31;101861.63;;;25.51;36.58
32642;BME280;19323;56.072;9.698;2023-02-26T11:07:58;101869.44;;;25.54;37.08
32642;BME280;19323;56.072;9.698;2023-02-26T11:10:26;101868.44;;;25.55;36.65
32642;BME280;19323;56.072;9.698;2023-02-26T11:12:52;101857.59;;;25.57;37.00
32642;BME280;19323;56.072;9.698;2023-02-26T11:15:21;101857.47;;;25.58;36.70
32642;BME280;19323;56.072;9.698;2023-02-26T11:17:47;101859.88;;;25.61;36.77
32642;BME280;19323;56.072;9.698;2023-02-26T11:20:18;101861.56;;;25.62;36.93
32642;BME280;19323;56.072;9.698;2023-02-26T11:22:47;101864.22;;;25.62;36.82
32642;BME280;19323;56.072;9.698;2023-02-26T11:25:13;101858.75;;;25.64;36.88
32642;BME280;19323;56.072;9.698;2023-02-26T11:27:41;101872.03;;;25.65;37.00
32642;BME280;19323;56.072;9.698;2023-02-26T11:30:25;101863.00;;;25.66;37.02
32642;BME280;19323;56.072;9.698;2023-02-26T11:32:52;101868.09;;;25.69;37.05
32642;BME280;19323;56.072;9.698;2023-02-26T11:35:18;101864.44;;;25.70;36.88
32642;BME280;19323;56.072;9.698;2023-02-26T11:37:55;101872.34;;;25.72;37.16
32642;BME280;19323;56.072;9.698;2023-02-26T11:40:22;101862.47;;;25.73;37.05
32642;BME280;19323;56.072;9.698;2023-02-26T11:42:52;101861.50;;;25.74;37.34
32642;BME280;19323;56.072;9.698;2023-02-26T11:45:19;101865.75;;;25.76;37.07
32642;BME280;19323;56.072;9.698;2023-02-26T11:47:45;101858.53;;;25.77;37.39
32642;BME280;19323;56.072;9.698;2023-02-26T11:50:15;101854.00;;;25.77;37.15
32642;BME280;19323;56.072;9.698;2023-02-26T11:52:44;101854.84;;;25.78;37.14
32642;BME280;19323;56.072;9.698;2023-02-26T11:55:20;101856.56;;;25.79;37.29
32642;BME280;19323;56.072;9.698;2023-02-26T11:57:49;101855.56;;;25.80;37.38
32642;BME280;19323;56.072;9.698;2023-02-26T12:00:19;101858.97;;;25.82;37.51
32642;BME280;19323;56.072;9.698;2023-02-26T12:02:44;101859.84;;;25.82;37.50
32642;BME280;19323;56.072;9.698;2023-02-26T12:05:09;101858.72;;;25.85;37.32
32642;BME280;19323;56.072;9.698;2023-02-26T12:07:38;101851.38;;;25.87;37.46
32642;BME280;19323;56.072;9.698;2023-02-26T12:10:08;101859.44;;;25.87;37.47
32642;BME280;19323;56.072;9.698;2023-02-26T12:12:41;101856.50;;;25.90;37.17
32642;BME280;19323;56.072;9.698;2023-02-26T12:15:16;101859.19;;;25.90;37.47
32642;BME280;19323;56.072;9.698;2023-02-26T12:18:02;101853.69;;;25.92;37.50
32642;BME280;19323;56.072;9.698;2023-02-26T12:31:02;101861.34;;;25.96;37.19
32642;BME280;19323;56.072;9.698;2023-02-26T12:33:40;101853.28;;;25.96;37.03
32642;BME280;19323;56.072;9.698;2023-02-26T12:38:51;101853.16;;;25.98;37.26
32642;BME280;19323;56.072;9.698;2023-02-26T12:41:23;101849.34;;;26.00;37.11
32642;BME280;19323;56.072;9.698;2023-02-26T12:43:55;101851.03;;;26.01;37.22
32642;BME280;19323;56.072;9.698;2023-02-26T12:48:51;101852.59;;;26.04;36.88
32642;BME280;19323;56.072;9.698;2023-02-26T12:51:23;101850.06;;;26.02;37.19
32642;BME280;19323;56.072;9.698;2023-02-26T12:56:21;101842.84;;;26.03;37.21
32642;BME280;19323;56.072;9.698;2023-02-26T13:01:28;101853.31;;;26.06;37.40
32642;BME280;19323;56.072;9.698;2023-02-26T13:04:39;101844.41;;;26.05;37.27
32642;BME280;19323;56.072;9.698;2023-02-26T13:06:56;101836.22;;;26.07;37.48
32642;BME280;19323;56.072;9.698;2023-02-26T13:12:04;101828.00;;;26.08;37.39
32642;BME280;19323;56.072;9.698;2023-02-26T13:14:37;101844.00;;;26.10;37.57
32642;BME280;19323;56.072;9.698;2023-02-26T13:17:18;101842.03;;;26.12;37.26
32642;BME280;19323;56.072;9.698;2023-02-26T13:19:48;101842.88;;;26.13;37.32
32642;BME280;19323;56.072;9.698;2023-02-26T13:22:19;101842.63;;;26.16;37.43
32642;BME280;19323;56.072;9.698;2023-02-26T13:24:46;101844.28;;;26.17;37.63
32642;BME280;19323;56.072;9.698;2023-02-26T13:27:13;101840.66;;;26.18;37.57
32642;BME280;19323;56.072;9.698;2023-02-26T13:29:45;101844.03;;;26.20;37.58
32642;BME280;19323;56.072;9.698;2023-02-26T13:32:16;101832.31;;;26.21;37.52
32642;BME280;19323;56.072;9.698;2023-02-26T13:34:44;101840.22;;;26.22;37.30
32642;BME280;19323;56.072;9.698;2023-02-26T13:37:23;101840.09;;;26.24;37.50
32642;BME280;19323;56.072;9.698;2023-02-26T13:39:59;101841.78;;;26.25;37.11
32642;BME280;19323;56.072;9.698;2023-02-26T13:42:28;101841.50;;;26.28;37.18
32642;BME280;19323;56.072;9.698;2023-02-26T13:45:22;101851.97;;;26.31;37.19
32642;BME280;19323;56.072;9.698;2023-02-26T13:52:49;101851.44;;;26.37;37.04
32642;BME280;19323;56.072;9.698;2023-02-26T13:55:35;101845.91;;;26.39;36.98
32642;BME280;19323;56.072;9.698;2023-02-26T13:58:14;101849.47;;;26.39;37.09
32642;BME280;19323;56.072;9.698;2023-02-26T14:00:44;101849.31;;;26.41;37.04
32642;BME280;19323;56.072;9.698;2023-02-26T14:05:50;101847.91;;;26.46;36.89
32642;BME280;19323;56.072;9.698;2023-02-26T14:13:14;101843.69;;;26.54;37.10
32642;BME280;19323;56.072;9.698;2023-02-26T14:15:47;101852.47;;;26.56;36.77
32642;BME280;19323;56.072;9.698;2023-02-26T14:18:19;101837.91;;;26.58;37.10
32642;BME280;19323;56.072;9.698;2023-02-26T14:20:45;101842.31;;;26.59;37.18
32642;BME280;19323;56.072;9.698;2023-02-26T14:23:23;101843.88;;;26.62;36.60
32642;BME280;19323;56.072;9.698;2023-02-26T14:25:53;101846.41;;;26.63;36.76
32642;BME280;19323;56.072;9.698;2023-02-26T14:31:44;101846.13;;;26.66;36.95
32642;BME280;19323;56.072;9.698;2023-02-26T14:33:38;101840.47;;;26.69;37.02